createdAt,value
2023-10-07T11:01:45.707Z,38.60
2023-10-07T11:03:22.840Z,32.20
2023-10-07T11:04:56.941Z,39.80
2023-10-07T11:06:29.637Z,35.60
2023-10-07T11:08:01.689Z,31.40
2023-10-07T11:09:40.863Z,39.00
2023-10-07T11:11:13.739Z,31.20
2023-10-07T11:12:46.778Z,38.20
2023-10-07T11:14:22.195Z,36.80
2023-10-07T11:15:59.990Z,36.00
2023-10-07T11:17:33.157Z,36.40
2023-10-07T11:19:12.884Z,32.60
2023-10-07T11:20:44.966Z,33.60
2023-10-07T11:22:20.962Z,32.20
2023-10-07T11:23:54.123Z,31.80
2023-10-07T11:25:28.414Z,32.60
2023-10-07T11:27:03.686Z,24.00
2023-10-07T11:28:35.787Z,31.40
2023-10-07T11:30:13.208Z,29.00
2023-10-07T11:31:47.833Z,28.40
2023-10-07T11:33:21.250Z,29.40
2023-10-07T11:34:53.611Z,30.00
2023-10-07T11:36:25.995Z,30.00
2023-10-07T11:37:59.399Z,29.60
2023-10-07T11:39:31.846Z,31.40
2023-10-07T11:41:08.342Z,30.60
2023-10-07T11:42:42.066Z,30.60
2023-10-07T11:44:18.133Z,39.20
2023-10-07T11:45:51.795Z,33.20
2023-10-07T11:47:24.761Z,31.00
2023-10-07T11:48:58.098Z,27.60
2023-10-07T11:50:33.214Z,31.80
2023-10-07T11:52:06.189Z,30.40
2023-10-07T11:53:40.872Z,31.80
2023-10-07T11:55:12.915Z,29.80
2023-10-07T11:56:45.107Z,30.00
2023-10-07T11:58:19.319Z,31.20
2023-10-07T11:59:51.371Z,31.20
2023-10-07T12:01:24.790Z,35.80
2023-10-07T12:03:00.622Z,32.80
2023-10-07T12:04:33.272Z,43.40
2023-10-07T12:06:06.665Z,36.00
2023-10-07T12:07:40.150Z,42.00
2023-10-07T12:09:13.342Z,41.40
2023-10-07T12:10:45.505Z,44.00
2023-10-07T12:12:18.937Z,43.80
2023-10-07T12:13:51.380Z,50.80
2023-10-07T12:15:23.526Z,55.20
2023-10-07T12:16:56.828Z,59.00
2023-10-07T12:18:28.998Z,62.40
2023-10-07T12:20:02.109Z,63.40
2023-10-07T12:21:35.999Z,65.50
2023-10-07T12:23:08.787Z,64.75
2023-10-07T12:24:43.546Z,68.50
2023-10-07T12:26:18.062Z,65.50
2023-10-07T12:27:50.784Z,65.25
2023-10-07T12:29:25.265Z,66.75
2023-10-07T12:30:58.004Z,76.75
2023-10-07T12:32:30.121Z,60.00
2023-10-07T12:34:02.200Z,62.25
2023-10-07T12:35:35.434Z,65.25
2023-10-07T12:37:09.021Z,67.75
2023-10-07T12:38:41.082Z,63.60
2023-10-07T12:40:13.359Z,71.50
2023-10-07T12:41:46.034Z,66.75
2023-10-07T12:43:18.293Z,71.00
2023-10-07T12:44:51.961Z,69.25
2023-10-07T12:46:24.237Z,64.50
2023-10-07T12:47:56.986Z,69.00
2023-10-07T12:49:29.579Z,56.80
2023-10-07T12:51:05.592Z,65.40
2023-10-07T12:52:37.763Z,57.60
2023-10-07T12:54:10.861Z,58.00
2023-10-07T12:55:43.565Z,65.00
2023-10-07T12:57:16.954Z,57.60
2023-10-07T12:58:49.716Z,61.60
2023-10-07T13:00:28.476Z,54.40
2023-10-07T13:02:00.894Z,58.60
2023-10-07T13:03:36.520Z,60.80
2023-10-07T13:05:10.792Z,51.40
2023-10-07T13:06:45.543Z,58.40
2023-10-07T13:08:40.530Z,56.20
2023-10-07T13:10:13.166Z,56.40
2023-10-07T13:11:47.182Z,68.50
2023-10-07T13:13:23.056Z,59.25
2023-10-07T13:14:55.962Z,63.25
2023-10-07T13:16:28.854Z,55.80
2023-10-07T13:18:02.518Z,47.20
2023-10-07T13:19:37.516Z,53.40
2023-10-07T13:21:14.908Z,37.80
2023-10-07T13:22:50.200Z,43.60
2023-10-07T13:24:23.572Z,39.80
2023-10-07T13:25:55.702Z,41.20
2023-10-07T13:27:27.947Z,34.40
2023-10-07T13:29:00.430Z,30.60
2023-10-07T13:30:32.400Z,27.20
2023-10-07T13:32:05.568Z,26.00
2023-10-07T13:33:37.784Z,34.80
2023-10-07T13:35:10.875Z,33.40
2023-10-07T13:36:44.600Z,33.80
2023-10-07T13:38:17.219Z,34.00
2023-10-07T13:39:49.332Z,24.40
2023-10-07T13:41:22.560Z,20.00
2023-10-07T13:42:54.771Z,26.20
2023-10-07T13:44:26.975Z,24.00
2023-10-07T13:45:59.006Z,29.20
2023-10-07T13:47:33.446Z,23.40
2023-10-07T13:49:09.858Z,23.40
2023-10-07T13:50:42.055Z,20.00
2023-10-07T13:52:22.820Z,19.60
2023-10-07T13:54:14.830Z,18.80
2023-10-07T13:55:55.673Z,25.40
2023-10-07T13:57:27.840Z,26.40
2023-10-07T13:59:03.000Z,24.60
2023-10-07T14:00:38.711Z,33.60
2023-10-07T14:02:16.444Z,29.60
2023-10-07T14:03:49.051Z,26.60
2023-10-07T14:05:21.847Z,27.40
2023-10-07T14:07:02.887Z,27.80
2023-10-07T14:08:38.545Z,30.40
2023-10-07T14:10:11.470Z,34.00
2023-10-07T14:11:47.918Z,28.20
2023-10-07T14:13:21.323Z,32.00
2023-10-07T14:14:53.972Z,32.60
2023-10-07T14:16:27.744Z,34.60
2023-10-07T14:18:01.919Z,31.40
2023-10-07T14:19:35.991Z,33.00
2023-10-07T14:21:08.583Z,29.40
2023-10-07T14:22:41.868Z,31.80
2023-10-07T14:24:15.443Z,26.60
2023-10-07T14:25:50.676Z,34.40
2023-10-07T14:27:24.718Z,33.20
2023-10-07T14:28:57.856Z,32.60
2023-10-07T14:30:30.365Z,36.00
2023-10-07T14:32:02.767Z,35.80
2023-10-07T14:33:35.887Z,33.60
2023-10-07T14:35:12.736Z,36.60
2023-10-07T14:36:46.363Z,36.60
2023-10-07T14:38:18.435Z,36.20
2023-10-07T14:39:57.667Z,37.00
2023-10-07T14:41:31.886Z,33.40
2023-10-07T14:43:05.632Z,34.20
2023-10-07T14:44:37.617Z,33.80
2023-10-07T14:46:12.986Z,37.40
2023-10-07T14:47:45.426Z,34.20
2023-10-07T14:49:20.068Z,37.60
2023-10-07T14:50:52.336Z,31.20
2023-10-07T14:52:24.374Z,31.80
2023-10-07T14:53:56.445Z,32.40
2023-10-07T14:55:33.760Z,34.20
2023-10-07T14:57:05.796Z,39.60
2023-10-07T14:58:37.944Z,34.60
2023-10-07T15:00:12.038Z,33.20
2023-10-07T15:01:44.567Z,35.80
2023-10-07T15:03:17.355Z,30.60
2023-10-07T15:04:52.086Z,37.00
2023-10-07T15:06:24.359Z,33.40
2023-10-07T15:07:56.563Z,40.00
2023-10-07T15:09:28.920Z,34.40
2023-10-07T15:11:01.056Z,40.80
2023-10-07T15:12:33.722Z,29.00
2023-10-07T15:14:06.306Z,31.60
2023-10-07T15:15:39.256Z,33.20
2023-10-07T15:17:11.837Z,29.40
2023-10-07T15:18:45.327Z,37.60
2023-10-07T15:20:17.376Z,18.80
2023-10-07T15:21:53.095Z,22.40
2023-10-07T15:23:25.727Z,35.40
2023-10-07T15:25:00.453Z,39.20
2023-10-07T15:26:32.717Z,37.20
2023-10-07T15:28:05.108Z,35.40
2023-10-07T15:29:37.786Z,38.20
2023-10-07T15:31:10.308Z,38.20
2023-10-07T15:32:45.684Z,33.00
2023-10-07T15:34:17.877Z,37.40
2023-10-07T15:35:50.357Z,39.20
2023-10-07T15:37:22.435Z,34.80
2023-10-07T15:38:54.632Z,37.00
2023-10-07T15:40:26.728Z,32.60
2023-10-07T15:41:58.908Z,41.80
2023-10-07T15:43:30.938Z,39.80
2023-10-07T15:45:04.908Z,39.20
2023-10-07T15:46:37.030Z,39.60
2023-10-07T15:48:12.868Z,39.80
2023-10-07T15:49:46.210Z,39.20
2023-10-07T15:51:19.283Z,35.40
2023-10-07T15:52:52.006Z,38.80
2023-10-07T15:54:24.282Z,37.60
2023-10-07T15:55:56.520Z,38.00
2023-10-07T15:57:29.295Z,39.00
2023-10-07T15:59:01.443Z,41.20
2023-10-07T16:00:35.548Z,40.20
2023-10-07T16:02:07.781Z,39.40
2023-10-07T16:03:40.806Z,37.40
2023-10-07T16:05:13.210Z,40.60
2023-10-07T16:06:47.746Z,42.80
2023-10-07T16:08:23.475Z,35.40
2023-10-07T16:09:55.546Z,37.60
2023-10-07T16:11:27.800Z,48.40
2023-10-07T16:13:00.052Z,48.00
2023-10-07T16:14:32.871Z,44.20
2023-10-07T16:16:08.408Z,44.40
2023-10-07T16:17:41.894Z,44.60
2023-10-07T16:19:15.367Z,42.60
2023-10-07T16:20:48.460Z,46.00
2023-10-07T16:22:21.146Z,41.80
2023-10-07T16:23:53.372Z,45.00
2023-10-07T16:25:26.093Z,42.60
2023-10-07T16:26:58.124Z,43.80
2023-10-07T16:28:30.214Z,44.80
2023-10-07T16:30:06.937Z,47.20
2023-10-07T16:31:39.196Z,45.20
2023-10-07T16:33:11.404Z,46.60
2023-10-07T16:34:43.736Z,43.60
2023-10-07T16:36:16.798Z,40.60
2023-10-07T16:37:49.203Z,43.00
2023-10-07T16:39:21.304Z,41.60
2023-10-07T16:40:53.419Z,36.20
2023-10-07T16:42:29.674Z,38.80
2023-10-07T16:44:02.184Z,34.20
2023-10-07T16:45:36.304Z,34.20
2023-10-07T16:47:08.771Z,32.20
2023-10-07T16:48:41.048Z,33.80
2023-10-07T16:50:16.274Z,35.60
2023-10-07T16:51:49.185Z,31.20
2023-10-07T16:53:21.418Z,35.00
2023-10-07T16:54:53.532Z,35.40
2023-10-07T16:56:25.831Z,15.20
2023-10-07T16:57:58.765Z,41.20
2023-10-07T16:59:30.908Z,35.20
2023-10-07T17:01:03.278Z,39.60
2023-10-07T17:02:35.490Z,39.20
2023-10-07T17:04:07.770Z,37.00
2023-10-07T17:05:39.935Z,31.60
2023-10-07T17:07:12.011Z,38.20
2023-10-07T17:08:45.840Z,39.60
2023-10-07T17:10:19.914Z,39.20
2023-10-07T17:11:52.283Z,41.40
2023-10-07T17:13:25.698Z,40.20
2023-10-07T17:14:57.881Z,38.00
2023-10-07T17:16:30.055Z,41.20
2023-10-07T17:18:02.443Z,39.60
2023-10-07T17:19:34.649Z,40.00
2023-10-07T17:21:09.985Z,43.60
2023-10-07T17:22:42.611Z,47.80
2023-10-07T17:24:15.382Z,45.00
2023-10-07T17:25:49.574Z,51.40
2023-10-07T17:27:21.688Z,48.80
2023-10-07T17:28:53.955Z,49.20
2023-10-07T17:30:28.931Z,47.80
2023-10-07T17:32:01.595Z,49.60
2023-10-07T17:33:33.712Z,45.60
2023-10-07T17:35:07.550Z,41.40
2023-10-07T17:36:39.760Z,49.80
2023-10-07T17:38:11.963Z,47.80
2023-10-07T17:39:44.303Z,49.40
2023-10-07T17:41:16.515Z,47.40
2023-10-07T17:42:51.970Z,49.00
2023-10-07T17:44:24.657Z,47.20
2023-10-07T17:45:56.910Z,46.00
2023-10-07T17:47:29.206Z,46.60
2023-10-07T17:49:01.253Z,48.80
2023-10-07T17:50:33.834Z,47.60
2023-10-07T17:52:06.060Z,48.60
2023-10-07T17:53:38.683Z,51.40
2023-10-07T17:55:12.048Z,53.60
2023-10-07T17:56:45.522Z,50.80
2023-10-07T17:58:20.891Z,51.80
2023-10-07T17:59:52.956Z,49.00
2023-10-07T18:01:25.190Z,48.40
2023-10-07T18:02:58.840Z,48.60
2023-10-07T18:04:33.426Z,50.20
2023-10-07T18:06:06.544Z,47.80
2023-10-07T18:07:39.383Z,43.60
2023-10-07T18:09:12.504Z,47.60
2023-10-07T18:10:44.748Z,47.00
2023-10-07T18:12:16.781Z,49.20
2023-10-07T18:13:49.052Z,45.00
2023-10-07T18:15:21.261Z,46.20
2023-10-07T18:16:54.307Z,45.80
2023-10-07T18:18:26.581Z,49.80
2023-10-07T18:19:58.744Z,47.40
2023-10-07T18:21:32.717Z,45.60
2023-10-07T18:23:04.938Z,49.20
2023-10-07T18:24:37.522Z,50.20
2023-10-07T18:26:09.580Z,49.60
2023-10-07T18:27:43.502Z,51.40
2023-10-07T18:29:15.562Z,52.60
2023-10-07T18:30:47.727Z,50.60
2023-10-07T18:32:19.952Z,48.60
2023-10-07T18:33:52.826Z,47.20
2023-10-07T18:35:28.087Z,47.80
2023-10-07T18:37:00.321Z,48.60
2023-10-07T18:38:32.894Z,47.60
2023-10-07T18:40:05.866Z,43.60
2023-10-07T18:41:38.098Z,44.80
2023-10-07T18:43:10.174Z,41.00
2023-10-07T18:44:42.455Z,45.80
2023-10-07T18:46:14.615Z,45.00
2023-10-07T18:47:46.675Z,45.60
2023-10-07T18:49:18.814Z,43.00
2023-10-07T18:50:50.925Z,44.80
2023-10-07T18:52:23.670Z,44.60
2023-10-07T18:53:55.789Z,44.60
2023-10-07T18:55:27.913Z,47.60
2023-10-07T18:56:59.940Z,44.40
2023-10-07T18:58:32.245Z,43.20
2023-10-07T19:00:04.543Z,44.80
2023-10-07T19:01:36.544Z,46.00
2023-10-07T19:03:08.801Z,44.60
2023-10-07T19:04:41.035Z,45.40
2023-10-07T19:06:13.980Z,47.40
2023-10-07T19:07:46.514Z,45.80
2023-10-07T19:09:19.311Z,45.80
2023-10-07T19:10:51.673Z,48.40
2023-10-07T19:12:23.721Z,47.20
2023-10-07T19:13:55.792Z,48.00
2023-10-07T19:15:28.802Z,49.40
2023-10-07T19:17:01.603Z,51.00
2023-10-07T19:18:33.802Z,51.20
2023-10-07T19:20:07.963Z,54.40
2023-10-07T19:21:40.185Z,52.40
2023-10-07T19:23:12.294Z,53.00
2023-10-07T19:24:44.749Z,59.80
2023-10-07T19:26:16.967Z,58.00
2023-10-07T19:27:49.171Z,53.40
2023-10-07T19:29:21.265Z,52.60
2023-10-07T19:30:53.407Z,56.60
2023-10-07T19:32:25.528Z,52.20
2023-10-07T19:33:58.371Z,54.60
2023-10-07T19:35:30.400Z,53.00
2023-10-07T19:37:04.049Z,63.60
2023-10-07T19:38:37.301Z,53.80
2023-10-07T19:40:09.836Z,53.20
2023-10-07T19:41:41.987Z,53.80
2023-10-07T19:43:14.994Z,53.00
2023-10-07T19:44:46.987Z,53.40
2023-10-07T19:46:20.441Z,50.20
2023-10-07T19:47:52.632Z,53.20
2023-10-07T19:49:25.572Z,50.00
2023-10-07T19:50:57.880Z,49.60
2023-10-07T19:52:29.938Z,49.60
2023-10-07T19:54:04.349Z,50.20
2023-10-07T19:55:36.897Z,50.40
2023-10-07T19:57:08.999Z,57.60
2023-10-07T19:58:41.023Z,53.40
2023-10-07T20:00:14.528Z,50.40
2023-10-07T20:01:47.142Z,51.20
2023-10-07T20:03:19.374Z,49.00
2023-10-07T20:04:52.668Z,51.40
2023-10-07T20:06:25.634Z,53.60
2023-10-07T20:08:00.450Z,55.60
2023-10-07T20:09:32.551Z,60.50
2023-10-07T20:11:05.287Z,55.25
2023-10-07T20:12:39.305Z,68.50
2023-10-07T20:14:11.926Z,56.80
2023-10-07T20:15:44.406Z,56.00
2023-10-07T20:17:17.116Z,54.20
2023-10-07T20:18:49.180Z,60.25
2023-10-07T20:20:21.476Z,54.60
2023-10-07T20:21:54.573Z,58.00
2023-10-07T20:23:26.835Z,54.75
2023-10-07T20:24:59.004Z,54.00
2023-10-07T20:26:31.219Z,57.50
2023-10-07T20:28:04.618Z,56.40
2023-10-07T20:29:36.648Z,58.00
2023-10-07T20:31:16.346Z,58.20
2023-10-07T20:32:48.798Z,54.60
2023-10-07T20:34:20.948Z,57.60
2023-10-07T20:35:53.114Z,51.00
2023-10-07T20:37:26.685Z,53.20
2023-10-07T20:38:58.649Z,53.40
2023-10-07T20:40:30.976Z,58.40
2023-10-07T20:42:03.000Z,52.40
2023-10-07T20:43:35.099Z,52.00
2023-10-07T20:45:07.572Z,55.80
2023-10-07T20:46:40.025Z,51.60
2023-10-07T20:48:12.008Z,51.00
2023-10-07T20:49:44.139Z,53.20
2023-10-07T20:51:17.381Z,48.80
2023-10-07T20:52:49.594Z,51.00
2023-10-07T20:54:21.693Z,55.40
2023-10-07T20:55:53.789Z,52.20
2023-10-07T20:57:25.866Z,52.20
2023-10-07T20:58:57.900Z,51.60
2023-10-07T21:00:29.948Z,52.20
2023-10-07T21:02:02.112Z,52.80
2023-10-07T21:03:34.546Z,49.20
2023-10-07T21:05:07.322Z,50.40
2023-10-07T21:06:39.375Z,53.00
2023-10-07T21:08:11.759Z,49.20
2023-10-07T21:09:43.940Z,54.00
2023-10-07T21:11:16.521Z,51.60
2023-10-07T21:12:48.635Z,53.00
2023-10-07T21:14:21.052Z,57.40
2023-10-07T21:15:57.454Z,56.00
2023-10-07T21:17:30.394Z,55.80
2023-10-07T21:19:02.463Z,55.20
2023-10-07T21:20:35.900Z,48.40
2023-10-07T21:22:10.175Z,58.80
2023-10-07T21:23:42.668Z,57.40
2023-10-07T21:25:14.707Z,55.60
2023-10-07T21:26:49.325Z,50.80
2023-10-07T21:28:22.598Z,49.40
2023-10-07T21:29:54.590Z,53.40
2023-10-07T21:31:27.104Z,52.00
2023-10-07T21:32:59.264Z,53.00
2023-10-07T21:34:31.295Z,55.60
2023-10-07T21:36:03.702Z,50.00
2023-10-07T21:37:37.291Z,51.80
2023-10-07T21:39:11.832Z,48.60
2023-10-07T21:40:44.997Z,52.60
2023-10-07T21:42:16.999Z,50.60
2023-10-07T21:43:49.024Z,50.80
2023-10-07T21:45:21.028Z,52.00
2023-10-07T21:46:53.674Z,50.00
2023-10-07T21:48:25.816Z,52.40
2023-10-07T21:49:57.832Z,44.40
2023-10-07T21:51:29.939Z,45.20
2023-10-07T21:53:05.205Z,50.00
2023-10-07T21:54:37.352Z,45.60
2023-10-07T21:56:11.872Z,46.40
2023-10-07T21:57:44.573Z,48.60
2023-10-07T21:59:20.822Z,49.00
2023-10-07T22:01:09.583Z,50.00
2023-10-07T22:02:42.386Z,47.20
2023-10-07T22:04:16.388Z,52.60
2023-10-07T22:05:49.744Z,48.60
2023-10-07T22:07:21.908Z,51.20
2023-10-07T22:08:54.077Z,50.60
2023-10-07T22:10:27.488Z,46.60
2023-10-07T22:12:00.061Z,47.40
2023-10-07T22:13:33.363Z,45.40
2023-10-07T22:15:08.816Z,46.40
2023-10-07T22:16:40.855Z,47.00
2023-10-07T22:18:13.920Z,48.00
2023-10-07T22:19:45.941Z,45.20
2023-10-07T22:21:20.105Z,45.80
2023-10-07T22:22:52.784Z,47.20
2023-10-07T22:24:25.209Z,44.80
2023-10-07T22:25:58.360Z,44.80
2023-10-07T22:27:30.447Z,46.80
2023-10-07T22:29:05.074Z,42.60
2023-10-07T22:30:37.547Z,42.80
2023-10-07T22:32:13.797Z,41.80
2023-10-07T22:33:45.988Z,37.40
